CCGS Tanu — CGBY — position and weather

sailwx.info

Track history (hours):
 
Tides and Currents Weather Stations Pressure Air Temp Water Temp Dewpoint Dewpoint Depression Visibility Wind Speed Wind Dir Waves Ship Positions

CCGS Tanu (Canada)

Ship's website: http://www.ccg-gcc.gc.ca/vessels-navires/details_e.asp?id=M-5

Last reported at 2014-Oct-30 04:06 UTC. Time now 2014-Oct-30 18:54 UTC.
Position N 51°23' W 127°47'.

Length 54.5 m; beam 9.7 m; draft 3.7 m.

Type: SAR. MMSI: 316091000.

Date/timePositionNaut miles runAvg speedWind from/ knotsBaromVisibWave heightAir tempDewpointWater temp
2014-Oct-30 04:06N 51°23' W 127°47'15 9.9
2014-Oct-30 02:32N 51°08' W 127°50'1111.2
2014-Oct-30 01:33N 50°58' W 127°45'1010.3
2014-Oct-30 00:33N 50°51' W 127°32'8 7.6
2014-Oct-29 23:29N 50°43' W 127°29'0 0.0
2014-Oct-29 22:29N 50°43' W 127°29'0 0.0
2014-Oct-29 21:29N 50°43' W 127°29'0 0.0
2014-Oct-29 20:23N 50°43' W 127°29'0 0.0
2014-Oct-29 19:29N 50°43' W 127°29'0 0.0
2014-Oct-29 18:29N 50°43' W 127°29'0 0.0
2014-Oct-29 17:29N 50°43' W 127°29'0 0.0
2014-Oct-29 15:06N 50°43' W 127°29'3 6.2
2014-Oct-29 14:33N 50°47' W 127°29'1211.8
2014-Oct-29 13:33N 50°51' W 127°46'4 3.3
2014-Oct-29 12:29N 50°51' W 127°52'0 0.0
2014-Oct-29 11:05N 50°51' W 127°52'0 0.0
2014-Oct-29 10:29N 50°51' W 127°52'0 0.0
2014-Oct-29 09:17N 50°51' W 127°52'0 0.0
2014-Oct-29 08:29N 50°51' W 127°52'0 0.0
2014-Oct-29 07:23N 50°51' W 127°52'0 0.0
2014-Oct-29 06:29N 50°51' W 127°52'0 0.0
2014-Oct-29 05:23N 50°51' W 127°52'0 0.0
2014-Oct-29 04:29N 50°51' W 127°52'0 0.0
2014-Oct-29 03:11N 50°51' W 127°52'0 0.0
2014-Oct-29 02:17N 50°51' W 127°52'0 0.0
2014-Oct-29 01:23N 50°51' W 127°52'0 0.0
2014-Oct-29 00:29N 50°51' W 127°52'0 0.0
2014-Oct-28 23:29N 50°51' W 127°52'0 0.0
2014-Oct-28 22:29N 50°51' W 127°52'0 0.0
2014-Oct-28 21:17N 50°51' W 127°52'0 0.0
2014-Oct-28 20:29N 50°51' W 127°52'0 0.0
2014-Oct-28 19:23N 50°51' W 127°52'0 0.0
2014-Oct-28 18:17N 50°51' W 127°52'0 0.0
2014-Oct-28 17:29N 50°51' W 127°52'0 0.0
2014-Oct-28 16:29N 50°51' W 127°52'0 0.0
2014-Oct-28 15:11N 50°51' W 127°52'0 0.0
2014-Oct-28 14:29N 50°51' W 127°52'0 0.0
2014-Oct-28 13:29N 50°51' W 127°52'0 0.0
2014-Oct-28 12:29N 50°51' W 127°52'0 0.0
2014-Oct-28 11:29N 50°51' W 127°52'0 0.0
2014-Oct-28 10:23N 50°51' W 127°52'0 0.0
2014-Oct-28 09:23N 50°51' W 127°52'0 0.0
2014-Oct-28 08:17N 50°51' W 127°52'0 0.0
2014-Oct-28 07:29N 50°51' W 127°52'0 0.0
2014-Oct-28 06:29N 50°51' W 127°52'0 0.0
2014-Oct-28 04:29N 50°51' W 127°52'0 0.0
2014-Oct-28 03:29N 50°51' W 127°52'0 0.0
2014-Oct-28 02:29N 50°51' W 127°52'0 0.0
2014-Oct-28 01:29N 50°51' W 127°52'0 0.0
2014-Oct-28 00:23N 50°51' W 127°52'0 0.0
2014-Oct-27 23:23N 50°51' W 127°52'0 0.0
2014-Oct-27 22:23N 50°51' W 127°52'0 0.0
2014-Oct-27 21:29N 50°51' W 127°52'0 0.0
2014-Oct-27 20:29N 50°51' W 127°52'0 0.0
2014-Oct-27 19:29N 50°51' W 127°52'0 0.0
2014-Oct-27 18:29N 50°51' W 127°52'0 0.0
2014-Oct-27 17:29N 50°51' W 127°52'0 0.0
2014-Oct-27 16:17N 50°51' W 127°52'0 0.0
2014-Oct-27 15:23N 50°51' W 127°52'0 0.0
2014-Oct-27 14:29N 50°51' W 127°52'0 0.0
2014-Oct-27 13:29N 50°51' W 127°52'0 0.0
2014-Oct-27 12:29N 50°51' W 127°52'0 0.0
2014-Oct-27 11:23N 50°51' W 127°52'0 0.0
2014-Oct-27 10:29N 50°51' W 127°52'0 0.0
2014-Oct-27 09:29N 50°51' W 127°52'0 0.0
2014-Oct-27 08:29N 50°51' W 127°52'0 0.0
2014-Oct-27 07:29N 50°51' W 127°52'0 0.0
2014-Oct-27 06:29N 50°51' W 127°52'0 0.0
2014-Oct-27 05:29N 50°51' W 127°52'0 0.0
2014-Oct-27 04:29N 50°51' W 127°52'0 0.0
2014-Oct-27 03:29N 50°51' W 127°52'0 0.0
2014-Oct-27 02:11N 50°51' W 127°52'0 0.0
2014-Oct-27 01:24N 50°51' W 127°52'7 7.8
2014-Oct-27 00:33N 50°50' W 127°42'10 9.7
2014-Oct-26 23:33N 50°45' W 127°28'2 1.7
2014-Oct-26 22:31N 50°43' W 127°29'0 0.0
2014-Oct-26 21:31N 50°43' W 127°29'0 0.0
2014-Oct-26 20:31N 50°43' W 127°29'0 0.0
2014-Oct-26 18:32N 50°43' W 127°29'9 9.6
2014-Oct-26 17:33N 50°52' W 127°23'3 3.0
2014-Oct-26 16:32N 50°55' W 127°21'0 0.0
2014-Oct-26 15:20N 50°55' W 127°21'0 0.0
2014-Oct-26 14:32N 50°55' W 127°21'0 0.0
2014-Oct-26 13:32N 50°55' W 127°21'0 0.0
2014-Oct-26 12:32N 50°55' W 127°21'0 0.0
2014-Oct-26 11:29N 50°55' W 127°21'0 0.0
2014-Oct-26 10:29N 50°55' W 127°21'0 0.0
2014-Oct-26 09:26N 50°55' W 127°21'0 0.0
2014-Oct-26 08:32N 50°55' W 127°21'0 0.0
2014-Oct-26 07:32N 50°55' W 127°21'0 0.0
2014-Oct-26 06:32N 50°55' W 127°21'0 0.0
2014-Oct-26 05:32N 50°55' W 127°21'0 0.0
2014-Oct-26 04:32N 50°55' W 127°21'0 0.0
2014-Oct-26 03:32N 50°55' W 127°21'0 0.0
2014-Oct-26 02:26N 50°55' W 127°21'0 0.0
2014-Oct-26 01:32N 50°55' W 127°21'0 0.0
2014-Oct-26 00:32N 50°55' W 127°21'0 0.0
2014-Oct-25 23:32N 50°55' W 127°21'4 4.5
2014-Oct-25 22:32N 50°51' W 127°25'1110.9
2014-Oct-25 21:33N 50°55' W 127°40'  
Track history (hours):
 
Tides and Currents Weather Stations Pressure Air Temp Water Temp Dewpoint Dewpoint Depression Visibility Wind Speed Wind Dir Waves Ship Positions

CCGS Tanu (Canada)

Ship's website: http://www.ccg-gcc.gc.ca/vessels-navires/details_e.asp?id=M-5

Last reported at 2014-Oct-30 04:06 UTC. Time now 2014-Oct-30 18:54 UTC.
Position N 51°23' W 127°47'.

Length 54.5 m; beam 9.7 m; draft 3.7 m.

Type: SAR. MMSI: 316091000.

Date/timePositionNaut miles runAvg speedWind from/ knotsBaromVisibWave heightAir tempDewpointWater temp
2014-Oct-30 04:06N 51°23' W 127°47'15 9.9
2014-Oct-30 02:32N 51°08' W 127°50'1111.2
2014-Oct-30 01:33N 50°58' W 127°45'1010.3
2014-Oct-30 00:33N 50°51' W 127°32'8 7.6
2014-Oct-29 23:29N 50°43' W 127°29'0 0.0
2014-Oct-29 22:29N 50°43' W 127°29'0 0.0
2014-Oct-29 21:29N 50°43' W 127°29'0 0.0
2014-Oct-29 20:23N 50°43' W 127°29'0 0.0
2014-Oct-29 19:29N 50°43' W 127°29'0 0.0
2014-Oct-29 18:29N 50°43' W 127°29'0 0.0
2014-Oct-29 17:29N 50°43' W 127°29'0 0.0
2014-Oct-29 15:06N 50°43' W 127°29'3 6.2
2014-Oct-29 14:33N 50°47' W 127°29'1211.8
2014-Oct-29 13:33N 50°51' W 127°46'4 3.3
2014-Oct-29 12:29N 50°51' W 127°52'0 0.0
2014-Oct-29 11:05N 50°51' W 127°52'0 0.0
2014-Oct-29 10:29N 50°51' W 127°52'0 0.0
2014-Oct-29 09:17N 50°51' W 127°52'0 0.0
2014-Oct-29 08:29N 50°51' W 127°52'0 0.0
2014-Oct-29 07:23N 50°51' W 127°52'0 0.0
2014-Oct-29 06:29N 50°51' W 127°52'0 0.0
2014-Oct-29 05:23N 50°51' W 127°52'0 0.0
2014-Oct-29 04:29N 50°51' W 127°52'0 0.0
2014-Oct-29 03:11N 50°51' W 127°52'0 0.0
2014-Oct-29 02:17N 50°51' W 127°52'0 0.0
2014-Oct-29 01:23N 50°51' W 127°52'0 0.0
2014-Oct-29 00:29N 50°51' W 127°52'0 0.0
2014-Oct-28 23:29N 50°51' W 127°52'0 0.0
2014-Oct-28 22:29N 50°51' W 127°52'0 0.0
2014-Oct-28 21:17N 50°51' W 127°52'0 0.0
2014-Oct-28 20:29N 50°51' W 127°52'0 0.0
2014-Oct-28 19:23N 50°51' W 127°52'0 0.0
2014-Oct-28 18:17N 50°51' W 127°52'0 0.0
2014-Oct-28 17:29N 50°51' W 127°52'0 0.0
2014-Oct-28 16:29N 50°51' W 127°52'0 0.0
2014-Oct-28 15:11N 50°51' W 127°52'0 0.0
2014-Oct-28 14:29N 50°51' W 127°52'0 0.0
2014-Oct-28 13:29N 50°51' W 127°52'0 0.0
2014-Oct-28 12:29N 50°51' W 127°52'0 0.0
2014-Oct-28 11:29N 50°51' W 127°52'0 0.0
2014-Oct-28 10:23N 50°51' W 127°52'0 0.0
2014-Oct-28 09:23N 50°51' W 127°52'0 0.0
2014-Oct-28 08:17N 50°51' W 127°52'0 0.0
2014-Oct-28 07:29N 50°51' W 127°52'0 0.0
2014-Oct-28 06:29N 50°51' W 127°52'0 0.0
2014-Oct-28 04:29N 50°51' W 127°52'0 0.0
2014-Oct-28 03:29N 50°51' W 127°52'0 0.0
2014-Oct-28 02:29N 50°51' W 127°52'0 0.0
2014-Oct-28 01:29N 50°51' W 127°52'0 0.0
2014-Oct-28 00:23N 50°51' W 127°52'0 0.0
2014-Oct-27 23:23N 50°51' W 127°52'0 0.0
2014-Oct-27 22:23N 50°51' W 127°52'0 0.0
2014-Oct-27 21:29N 50°51' W 127°52'0 0.0
2014-Oct-27 20:29N 50°51' W 127°52'0 0.0
2014-Oct-27 19:29N 50°51' W 127°52'0 0.0
2014-Oct-27 18:29N 50°51' W 127°52'0 0.0
2014-Oct-27 17:29N 50°51' W 127°52'0 0.0
2014-Oct-27 16:17N 50°51' W 127°52'0 0.0
2014-Oct-27 15:23N 50°51' W 127°52'0 0.0
2014-Oct-27 14:29N 50°51' W 127°52'0 0.0
2014-Oct-27 13:29N 50°51' W 127°52'0 0.0
2014-Oct-27 12:29N 50°51' W 127°52'0 0.0
2014-Oct-27 11:23N 50°51' W 127°52'0 0.0
2014-Oct-27 10:29N 50°51' W 127°52'0 0.0
2014-Oct-27 09:29N 50°51' W 127°52'0 0.0
2014-Oct-27 08:29N 50°51' W 127°52'0 0.0
2014-Oct-27 07:29N 50°51' W 127°52'0 0.0
2014-Oct-27 06:29N 50°51' W 127°52'0 0.0
2014-Oct-27 05:29N 50°51' W 127°52'0 0.0
2014-Oct-27 04:29N 50°51' W 127°52'0 0.0
2014-Oct-27 03:29N 50°51' W 127°52'0 0.0
2014-Oct-27 02:11N 50°51' W 127°52'0 0.0
2014-Oct-27 01:24N 50°51' W 127°52'7 7.8
2014-Oct-27 00:33N 50°50' W 127°42'10 9.7
2014-Oct-26 23:33N 50°45' W 127°28'2 1.7
2014-Oct-26 22:31N 50°43' W 127°29'0 0.0
2014-Oct-26 21:31N 50°43' W 127°29'0 0.0
2014-Oct-26 20:31N 50°43' W 127°29'0 0.0
2014-Oct-26 18:32N 50°43' W 127°29'9 9.6
2014-Oct-26 17:33N 50°52' W 127°23'3 3.0
2014-Oct-26 16:32N 50°55' W 127°21'0 0.0
2014-Oct-26 15:20N 50°55' W 127°21'0 0.0
2014-Oct-26 14:32N 50°55' W 127°21'0 0.0
2014-Oct-26 13:32N 50°55' W 127°21'0 0.0
2014-Oct-26 12:32N 50°55' W 127°21'0 0.0
2014-Oct-26 11:29N 50°55' W 127°21'0 0.0
2014-Oct-26 10:29N 50°55' W 127°21'0 0.0
2014-Oct-26 09:26N 50°55' W 127°21'0 0.0
2014-Oct-26 08:32N 50°55' W 127°21'0 0.0
2014-Oct-26 07:32N 50°55' W 127°21'0 0.0
2014-Oct-26 06:32N 50°55' W 127°21'0 0.0
2014-Oct-26 05:32N 50°55' W 127°21'0 0.0
2014-Oct-26 04:32N 50°55' W 127°21'0 0.0
2014-Oct-26 03:32N 50°55' W 127°21'0 0.0
2014-Oct-26 02:26N 50°55' W 127°21'0 0.0
2014-Oct-26 01:32N 50°55' W 127°21'0 0.0
2014-Oct-26 00:32N 50°55' W 127°21'0 0.0
2014-Oct-25 23:32N 50°55' W 127°21'4 4.5
2014-Oct-25 22:32N 50°51' W 127°25'1110.9
2014-Oct-25 21:33N 50°55' W 127°40'  

Dump ship's entire track history